Time;durP1;ratioP1;P1;durP2;ratioP2;P2;SDS_P1;SDS_P2;PMS_P1;PMS_P2;Temp;Humidity;BMP_temperature;BMP_pressure;BME280_temperature;BME280_humidity;BME280_pressure;Samples;Min_cycle;Max_cycle;Signal;HPM_P1;HPM_P2
2022/12/10 00:01:25;;;;;;;5.13;4.68;;;;;;;;;;5055854;28;20056;-93
2022/12/10 00:03:52;;;;;;;3.95;3.00;;;;;;;;;;5055531;28;20099;-93
2022/12/10 00:06:19;;;;;;;9.15;4.43;;;;;;;;;;5055429;28;20049;-93
2022/12/10 00:08:47;;;;;;;10.43;3.30;;;;;;;;;;5055046;28;20518;-92
2022/12/10 00:11:14;;;;;;;3.88;2.97;;;;;;;;;;5055207;28;20045;-93
2022/12/10 00:13:41;;;;;;;4.03;3.80;;;;;;;;;;5055405;28;20072;-93
2022/12/10 00:16:09;;;;;;;3.33;3.17;;;;;;;;;;5054371;28;20472;-93
2022/12/10 00:18:36;;;;;;;4.40;3.78;;;;;;;;;;5054982;28;20053;-93
2022/12/10 00:21:02;;;;;;;2.88;2.55;;;;;;;;;;5055055;28;20449;-93
2022/12/10 00:23:30;;;;;;;6.03;5.25;;;;;;;;;;5054912;28;20053;-93
2022/12/10 00:26:03;;;;;;;3.50;3.05;;;;;;;;;;5054584;28;20551;-93
2022/12/10 00:28:32;;;;;;;4.10;3.58;;;;;;;;;;5054907;28;20053;-92
2022/12/10 00:31:03;;;;;;;4.45;3.63;;;;;;;;;;5055215;28;20068;-92
2022/12/10 00:33:29;;;;;;;10.77;5.97;;;;;;;;;;5054941;28;20135;-94
2022/12/10 00:35:56;;;;;;;5.43;5.00;;;;;;;;;;5054870;28;20045;-94
2022/12/10 00:38:22;;;;;;;3.28;2.55;;;;;;;;;;5055121;28;20056;-94
2022/12/10 00:40:49;;;;;;;5.40;5.10;;;;;;;;;;5055035;28;20191;-95
2022/12/10 00:43:17;;;;;;;2.30;2.20;;;;;;;;;;5054986;28;20138;-95
2022/12/10 00:45:43;;;;;;;3.65;3.45;;;;;;;;;;5055062;28;20114;-95
2022/12/10 00:48:10;;;;;;;3.67;3.42;;;;;;;;;;5054936;28;20087;-94
2022/12/10 00:50:36;;;;;;;4.68;4.38;;;;;;;;;;5054778;28;20053;-94
2022/12/10 00:53:03;;;;;;;5.05;4.75;;;;;;;;;;5054444;28;20506;-94
2022/12/10 00:55:29;;;;;;;3.63;3.35;;;;;;;;;;5054310;28;20053;-94
2022/12/10 00:57:56;;;;;;;4.07;3.78;;;;;;;;;;5054619;28;20052;-93
2022/12/10 01:00:24;;;;;;;4.35;4.15;;;;;;;;;;5054610;28;20478;-94
2022/12/10 01:02:50;;;;;;;2.53;2.42;;;;;;;;;;5054208;28;20049;-92
2022/12/10 01:05:17;;;;;;;2.42;2.25;;;;;;;;;;5054690;28;20041;-93
2022/12/10 01:07:43;;;;;;;4.20;3.60;;;;;;;;;;5054650;28;20048;-94
2022/12/10 01:10:10;;;;;;;2.67;2.55;;;;;;;;;;5054242;28;20045;-93
2022/12/10 01:12:36;;;;;;;3.90;3.70;;;;;;;;;;5054335;28;20045;-93
2022/12/10 01:15:03;;;;;;;4.03;3.83;;;;;;;;;;5053974;28;20049;-95
2022/12/10 01:17:31;;;;;;;4.70;4.35;;;;;;;;;;5054127;28;20091;-94
2022/12/10 01:19:57;;;;;;;3.65;3.35;;;;;;;;;;5054366;28;20045;-94
2022/12/10 01:22:24;;;;;;;8.00;3.13;;;;;;;;;;5060235;28;20053;-94
2022/12/10 01:24:50;;;;;;;3.67;3.45;;;;;;;;;;5059589;28;20052;-93
2022/12/10 01:27:17;;;;;;;2.75;2.55;;;;;;;;;;5057355;28;20391;-93
2022/12/10 01:29:43;;;;;;;3.65;3.38;;;;;;;;;;5053029;28;20041;-92
2022/12/10 01:32:10;;;;;;;3.78;3.58;;;;;;;;;;5053430;28;20110;-93
2022/12/10 01:34:38;;;;;;;3.33;3.13;;;;;;;;;;5053701;28;20099;-93
2022/12/10 01:37:04;;;;;;;4.53;2.75;;;;;;;;;;5053521;28;20041;-93
2022/12/10 01:39:31;;;;;;;11.07;7.55;;;;;;;;;;5053486;28;20049;-92
2022/12/10 01:41:58;;;;;;;4.85;4.43;;;;;;;;;;5053535;28;20048;-93
2022/12/10 01:44:43;;;;;;;3.63;3.50;;;;;;;;;;5053738;28;20045;-94
2022/12/10 01:47:10;;;;;;;3.35;3.22;;;;;;;;;;5053711;28;20086;-93
2022/12/10 01:49:39;;;;;;;6.10;3.35;;;;;;;;;;5053400;28;20098;-95
2022/12/10 01:52:07;;;;;;;5.85;4.80;;;;;;;;;;5053650;28;20103;-94
2022/12/10 01:54:34;;;;;;;5.03;3.70;;;;;;;;;;5053089;28;20103;-93
2022/12/10 01:57:01;;;;;;;5.03;4.70;;;;;;;;;;5053246;28;20053;-92
2022/12/10 01:59:28;;;;;;;5.07;4.53;;;;;;;;;;5052537;28;20494;-90
2022/12/10 02:01:58;;;;;;;12.70;4.40;;;;;;;;;;5052900;28;20106;-91
2022/12/10 02:04:29;;;;;;;4.45;3.20;;;;;;;;;;5052738;28;20122;-90
2022/12/10 02:07:01;;;;;;;10.88;3.22;;;;;;;;;;5052660;28;20079;-90
2022/12/10 02:09:33;;;;;;;6.95;3.50;;;;;;;;;;5052465;28;20056;-92
2022/12/10 02:12:06;;;;;;;2.78;2.60;;;;;;;;;;5053462;28;20056;-91
2022/12/10 02:14:36;;;;;;;3.92;3.30;;;;;;;;;;5052663;28;20567;-92
2022/12/10 02:17:05;;;;;;;5.43;3.42;;;;;;;;;;5052863;28;20056;-92
2022/12/10 02:19:40;;;;;;;5.88;5.38;;;;;;;;;;5052692;28;20060;-92
2022/12/10 02:22:08;;;;;;;2.60;2.47;;;;;;;;;;5052590;28;20502;-92
2022/12/10 02:24:37;;;;;;;4.13;3.90;;;;;;;;;;5052312;28;20500;-91
2022/12/10 02:27:05;;;;;;;3.25;3.00;;;;;;;;;;5052315;28;20045;-91
2022/12/10 02:29:34;;;;;;;3.10;2.97;;;;;;;;;;5052697;28;20143;-91
2022/12/10 02:32:03;;;;;;;3.30;3.00;;;;;;;;;;5052285;28;20512;-91
2022/12/10 02:34:33;;;;;;;3.70;3.45;;;;;;;;;;5052372;28;20106;-92
2022/12/10 02:37:01;;;;;;;2.72;2.58;;;;;;;;;;5052628;28;20049;-90
2022/12/10 02:39:31;;;;;;;4.38;4.18;;;;;;;;;;5053435;28;20103;-91
2022/12/10 02:41:59;;;;;;;4.40;4.10;;;;;;;;;;5056654;28;20106;-91
2022/12/10 02:44:28;;;;;;;4.07;3.75;;;;;;;;;;5056321;28;20052;-90
2022/12/10 02:46:57;;;;;;;4.00;3.80;;;;;;;;;;5056172;28;20049;-90
2022/12/10 02:49:25;;;;;;;10.25;4.63;;;;;;;;;;5056030;28;20106;-91
2022/12/10 02:51:51;;;;;;;3.90;3.60;;;;;;;;;;5056393;28;20122;-90
2022/12/10 02:54:41;;;;;;;5.22;4.85;;;;;;;;;;5055719;28;20049;-90
2022/12/10 02:57:07;;;;;;;;;;;;;;;;;;5056499;28;20045;-90
2022/12/10 02:59:35;;;;;;;5.22;4.72;;;;;;;;;;5055649;28;19920;-91
2022/12/10 03:02:07;;;;;;;3.03;2.80;;;;;;;;;;5056072;28;20114;-90
2022/12/10 03:04:36;;;;;;;4.93;4.45;;;;;;;;;;5055959;28;20049;-91
2022/12/10 03:07:07;;;;;;;6.13;5.68;;;;;;;;;;5055932;28;20103;-91
2022/12/10 03:09:36;;;;;;;6.45;5.85;;;;;;;;;;5055701;28;20083;-93
2022/12/10 03:12:07;;;;;;;6.80;4.35;;;;;;;;;;5055812;28;20462;-92
2022/12/10 03:14:33;;;;;;;3.42;3.22;;;;;;;;;;5056136;28;20448;-92
2022/12/10 03:17:01;;;;;;;2.67;2.58;;;;;;;;;;5055699;28;20095;-94
2022/12/10 03:19:32;;;;;;;3.38;3.17;;;;;;;;;;5056286;28;20099;-93
2022/12/10 03:21:58;;;;;;;;;;;;;;;;;;5056788;28;20481;-92
2022/12/10 03:24:26;;;;;;;5.20;4.80;;;;;;;;;;5056263;28;19982;-94
2022/12/10 03:26:53;;;;;;;4.47;4.07;;;;;;;;;;5056157;28;20045;-94
2022/12/10 03:29:23;;;;;;;4.55;4.35;;;;;;;;;;5055999;28;20056;-93
2022/12/10 03:31:51;;;;;;;7.45;7.05;;;;;;;;;;5059996;28;20628;-92
2022/12/10 03:34:18;;;;;;;3.42;3.22;;;;;;;;;;5061670;28;20067;-93
2022/12/10 03:36:46;;;;;;;4.63;3.72;;;;;;;;;;5052067;28;20053;-92
2022/12/10 03:39:13;;;;;;;3.53;3.30;;;;;;;;;;5036475;28;20062;-91
2022/12/10 03:41:40;;;;;;;4.53;4.32;;;;;;;;;;5035242;28;20107;-91
2022/12/10 03:44:06;;;;;;;3.42;3.20;;;;;;;;;;5035490;28;20462;-92
2022/12/10 03:46:33;;;;;;;3.60;3.38;;;;;;;;;;5035757;28;20042;-92
2022/12/10 03:49:00;;;;;;;6.00;5.40;;;;;;;;;;5035775;28;20057;-92
2022/12/10 03:51:27;;;;;;;4.35;4.15;;;;;;;;;;5034738;28;20053;-92
2022/12/10 03:53:55;;;;;;;6.13;5.82;;;;;;;;;;5035383;28;20076;-91
2022/12/10 03:56:21;;;;;;;3.33;2.83;;;;;;;;;;5035494;28;20057;-93
2022/12/10 03:58:48;;;;;;;2.85;2.65;;;;;;;;;;5035873;28;20107;-93
2022/12/10 04:01:15;;;;;;;3.35;3.10;;;;;;;;;;5035956;28;20403;-94
2022/12/10 04:03:42;;;;;;;3.92;3.67;;;;;;;;;;5035945;28;20075;-94
2022/12/10 04:06:11;;;;;;;3.38;3.15;;;;;;;;;;5035447;28;20049;-93
2022/12/10 04:08:37;;;;;;;4.18;3.80;;;;;;;;;;5035130;28;20104;-93
2022/12/10 04:11:06;;;;;;;3.88;3.58;;;;;;;;;;5035413;28;20049;-93
2022/12/10 04:16:29;;;;;;;3.42;3.25;;;;;;;;;;5035120;28;20075;-92
2022/12/10 04:18:57;;;;;;;3.00;2.80;;;;;;;;;;5035221;28;20485;-92
2022/12/10 04:26:53;;;;;;;5.78;5.38;;;;;;;;;;5034903;28;20068;-92
2022/12/10 04:29:20;;;;;;;4.65;4.38;;;;;;;;;;5034949;28;20136;-92
2022/12/10 04:31:47;;;;;;;4.80;4.28;;;;;;;;;;5035230;28;20049;-92
2022/12/10 04:34:13;;;;;;;5.10;4.03;;;;;;;;;;5035112;28;20050;-92
2022/12/10 04:36:40;;;;;;;5.47;5.18;;;;;;;;;;5034845;28;20107;-93
2022/12/10 04:39:06;;;;;;;3.92;3.72;;;;;;;;;;5035305;28;20372;-92
2022/12/10 04:41:33;;;;;;;3.20;3.00;;;;;;;;;;5034751;28;20151;-93
2022/12/10 04:44:01;;;;;;;4.75;3.50;;;;;;;;;;5034873;28;20095;-92
2022/12/10 04:46:28;;;;;;;3.25;3.10;;;;;;;;;;5034714;28;20045;-94
2022/12/10 04:48:55;;;;;;;3.67;3.47;;;;;;;;;;5034750;28;20634;-93
2022/12/10 04:51:21;;;;;;;3.22;3.03;;;;;;;;;;5034790;28;20100;-94
2022/12/10 04:53:48;;;;;;;2.75;2.63;;;;;;;;;;5034494;28;20049;-94
2022/12/10 04:56:14;;;;;;;2.63;2.42;;;;;;;;;;5033947;28;20561;-91
2022/12/10 04:58:41;;;;;;;6.07;5.68;;;;;;;;;;5033853;28;20046;-91
2022/12/10 05:01:09;;;;;;;3.42;3.20;;;;;;;;;;5034277;28;20049;-93
2022/12/10 05:03:36;;;;;;;5.05;2.88;;;;;;;;;;5034594;28;20450;-93
2022/12/10 05:06:04;;;;;;;2.33;2.05;;;;;;;;;;5034360;28;20053;-94
2022/12/10 05:08:30;;;;;;;3.30;3.13;;;;;;;;;;5034433;28;20108;-93
2022/12/10 05:11:01;;;;;;;2.72;2.38;;;;;;;;;;5034330;28;20049;-94
2022/12/10 05:13:27;;;;;;;3.53;3.22;;;;;;;;;;5034435;28;20088;-94
2022/12/10 05:15:54;;;;;;;2.22;2.13;;;;;;;;;;5034032;28;20486;-92
2022/12/10 05:18:22;;;;;;;2.60;2.42;;;;;;;;;;5033693;28;20079;-91
2022/12/10 05:20:48;;;;;;;4.05;3.85;;;;;;;;;;5033441;28;20099;-91
2022/12/10 05:23:29;;;;;;;2.55;2.20;;;;;;;;;;5034228;28;20049;-93
2022/12/10 05:25:59;;;;;;;4.57;3.50;;;;;;;;;;5034074;28;20052;-94
2022/12/10 05:28:25;;;;;;;3.35;2.95;;;;;;;;;;5034153;28;20049;-93
2022/12/10 05:30:52;;;;;;;4.32;2.30;;;;;;;;;;5033720;28;20083;-93
2022/12/10 05:33:18;;;;;;;3.17;2.92;;;;;;;;;;5033936;28;20041;-92
2022/12/10 05:35:51;;;;;;;3.75;3.55;;;;;;;;;;5033645;28;20053;-90
2022/12/10 05:38:18;;;;;;;3.30;2.92;;;;;;;;;;5032814;28;20110;-90
2022/12/10 05:40:45;;;;;;;4.70;3.55;;;;;;;;;;5033115;28;20045;-89
2022/12/10 05:43:12;;;;;;;4.00;3.80;;;;;;;;;;5036081;28;20061;-89
2022/12/10 05:45:38;;;;;;;7.45;3.75;;;;;;;;;;5039022;28;20107;-90
2022/12/10 05:48:05;;;;;;;3.28;3.08;;;;;;;;;;5039801;28;20053;-89
2022/12/10 05:50:32;;;;;;;2.70;2.53;;;;;;;;;;5034441;28;20486;-89
2022/12/10 05:53:00;;;;;;;4.90;4.38;;;;;;;;;;5032537;28;20049;-90
2022/12/10 05:55:26;;;;;;;3.17;2.78;;;;;;;;;;5032816;28;20053;-90
2022/12/10 05:57:53;;;;;;;3.03;2.90;;;;;;;;;;5043887;28;20049;-92
2022/12/10 06:00:21;;;;;;;2.63;2.47;;;;;;;;;;5053641;28;20185;-94
2022/12/10 06:02:47;;;;;;;3.17;3.05;;;;;;;;;;5053058;28;20049;-90
2022/12/10 06:05:13;;;;;;;3.50;3.30;;;;;;;;;;5050507;28;20107;-91
2022/12/10 06:07:40;;;;;;;2.60;2.42;;;;;;;;;;5052483;28;20049;-90
2022/12/10 06:10:08;;;;;;;1.88;1.77;;;;;;;;;;5052610;28;20057;-91
2022/12/10 06:12:35;;;;;;;7.65;3.50;;;;;;;;;;5052714;28;20045;-92
2022/12/10 06:15:02;;;;;;;2.35;2.15;;;;;;;;;;5052315;28;20049;-92
2022/12/10 06:17:28;;;;;;;3.22;3.03;;;;;;;;;;5052768;28;20064;-92
2022/12/10 06:19:54;;;;;;;3.53;3.33;;;;;;;;;;5052464;28;20095;-92
2022/12/10 06:22:21;;;;;;;4.55;4.35;;;;;;;;;;5052296;28;20044;-92
2022/12/10 06:24:47;;;;;;;3.50;3.30;;;;;;;;;;5052661;28;20119;-92
2022/12/10 06:27:15;;;;;;;1.98;1.88;;;;;;;;;;5052275;28;20098;-92
2022/12/10 06:29:42;;;;;;;3.20;3.00;;;;;;;;;;5052301;28;20106;-92
2022/12/10 06:32:08;;;;;;;2.20;2.10;;;;;;;;;;5052721;28;20107;-92
2022/12/10 06:34:35;;;;;;;3.05;2.92;;;;;;;;;;5052836;28;20049;-92
2022/12/10 06:37:01;;;;;;;1.92;1.83;;;;;;;;;;5052081;28;20490;-91
2022/12/10 06:39:28;;;;;;;3.22;2.92;;;;;;;;;;5052473;28;20122;-92
2022/12/10 06:41:54;;;;;;;2.55;2.42;;;;;;;;;;5052475;28;20083;-92
2022/12/10 06:44:22;;;;;;;5.47;2.35;;;;;;;;;;5052460;28;20080;-92
2022/12/10 06:46:49;;;;;;;3.75;3.55;;;;;;;;;;5052429;28;20654;-91
2022/12/10 06:49:15;;;;;;;2.00;1.90;;;;;;;;;;5052508;28;20106;-92
2022/12/10 06:51:42;;;;;;;4.50;4.30;;;;;;;;;;5052303;28;20045;-92
2022/12/10 06:54:08;;;;;;;3.92;3.58;;;;;;;;;;5051899;28;20417;-91
2022/12/10 06:56:35;;;;;;;4.38;2.45;;;;;;;;;;5052588;28;20053;-91
2022/12/10 06:59:04;;;;;;;3.30;3.10;;;;;;;;;;5051988;28;20603;-91
2022/12/10 07:01:32;;;;;;;2.17;2.08;;;;;;;;;;5051552;28;20441;-90
2022/12/10 07:03:59;;;;;;;4.30;4.00;;;;;;;;;;5051380;28;20045;-89
2022/12/10 07:06:27;;;;;;;2.20;2.08;;;;;;;;;;5051689;28;20498;-91
2022/12/10 07:08:54;;;;;;;4.63;4.32;;;;;;;;;;5036821;28;20478;-91
2022/12/10 07:11:22;;;;;;;2.88;2.67;;;;;;;;;;5032089;28;20572;-91
2022/12/10 07:13:48;;;;;;;2.70;2.50;;;;;;;;;;5032179;28;20100;-92
2022/12/10 07:16:16;;;;;;;3.55;3.35;;;;;;;;;;5032542;28;20049;-92
2022/12/10 07:18:44;;;;;;;3.67;3.38;;;;;;;;;;5032261;28;20050;-92
2022/12/10 07:21:15;;;;;;;4.93;4.63;;;;;;;;;;5032330;28;20057;-92
2022/12/10 07:23:41;;;;;;;4.45;3.55;;;;;;;;;;5048739;28;20055;-92
2022/12/10 07:26:08;;;;;;;3.88;3.58;;;;;;;;;;5052536;28;20096;-93
2022/12/10 07:28:34;;;;;;;9.63;3.47;;;;;;;;;;5055761;28;20440;-92
2022/12/10 07:31:01;;;;;;;2.45;2.25;;;;;;;;;;5055938;28;20479;-92
2022/12/10 07:33:28;;;;;;;5.65;5.35;;;;;;;;;;5056024;28;20095;-91
2022/12/10 07:35:56;;;;;;;3.20;2.60;;;;;;;;;;5055430;28;20095;-92
2022/12/10 07:38:22;;;;;;;3.28;3.10;;;;;;;;;;5055663;28;20057;-92
2022/12/10 07:40:49;;;;;;;4.45;4.15;;;;;;;;;;5055644;28;20049;-92
2022/12/10 07:43:15;;;;;;;3.45;3.30;;;;;;;;;;5055424;28;20454;-92
2022/12/10 07:45:42;;;;;;;7.22;4.85;;;;;;;;;;5052783;28;20106;-91
2022/12/10 07:48:08;;;;;;;4.00;3.70;;;;;;;;;;5054834;28;20449;-92
2022/12/10 07:50:35;;;;;;;4.45;4.25;;;;;;;;;;5055429;28;20057;-92
2022/12/10 07:53:03;;;;;;;4.40;4.20;;;;;;;;;;5055466;28;20122;-92
2022/12/10 07:55:29;;;;;;;3.58;3.35;;;;;;;;;;5061285;28;20049;-92
2022/12/10 07:57:56;;;;;;;2.80;2.67;;;;;;;;;;5059012;28;20102;-92
2022/12/10 08:00:22;;;;;;;3.85;3.38;;;;;;;;;;5059753;28;20115;-92
2022/12/10 08:02:49;;;;;;;3.35;3.15;;;;;;;;;;5051733;28;20049;-92
2022/12/10 08:05:15;;;;;;;4.38;4.10;;;;;;;;;;5035076;28;20061;-92
2022/12/10 08:07:42;;;;;;;3.42;2.75;;;;;;;;;;5037186;28;20046;-92
2022/12/10 08:10:10;;;;;;;2.67;2.55;;;;;;;;;;5054653;28;20119;-91
2022/12/10 08:12:36;;;;;;;3.13;3.00;;;;;;;;;;5035272;28;20115;-93
2022/12/10 08:15:03;;;;;;;3.28;3.08;;;;;;;;;;5034844;28;20065;-93
2022/12/10 08:17:30;;;;;;;2.80;2.65;;;;;;;;;;5034992;28;20042;-93
2022/12/10 08:19:56;;;;;;;3.80;3.33;;;;;;;;;;5034714;28;20060;-92
2022/12/10 08:22:23;;;;;;;2.83;2.70;;;;;;;;;;5034902;28;20049;-92
2022/12/10 08:24:49;;;;;;;2.42;2.33;;;;;;;;;;5069378;28;20044;-94
2022/12/10 08:27:17;;;;;;;3.47;2.88;;;;;;;;;;5074830;28;20041;-91
2022/12/10 08:29:44;;;;;;;3.88;3.67;;;;;;;;;;5056579;28;20106;-93
2022/12/10 08:32:10;;;;;;;4.22;4.03;;;;;;;;;;5054669;28;20130;-92
2022/12/10 08:34:37;;;;;;;8.57;7.85;;;;;;;;;;5054308;28;20048;-92
2022/12/10 08:37:04;;;;;;;4.05;2.70;;;;;;;;;;5054185;28;20049;-92
2022/12/10 08:39:30;;;;;;;3.78;3.58;;;;;;;;;;5039123;28;20099;-92
2022/12/10 08:41:57;;;;;;;3.13;2.92;;;;;;;;;;5034642;28;20049;-93
2022/12/10 08:44:25;;;;;;;3.08;2.88;;;;;;;;;;5034202;28;20564;-92
2022/12/10 08:46:51;;;;;;;4.53;2.97;;;;;;;;;;5034506;28;20057;-93
2022/12/10 08:49:18;;;;;;;3.15;3.00;;;;;;;;;;5054049;28;20083;-92
2022/12/10 08:51:44;;;;;;;3.58;3.05;;;;;;;;;;5054088;28;20098;-93
2022/12/10 08:54:11;;;;;;;2.67;2.58;;;;;;;;;;5054480;28;20049;-93
2022/12/10 08:56:39;;;;;;;3.17;2.97;;;;;;;;;;5054496;28;20110;-93
2022/12/10 08:59:05;;;;;;;4.30;4.00;;;;;;;;;;5054202;28;20049;-93
2022/12/10 09:01:33;;;;;;;4.47;4.28;;;;;;;;;;5054530;28;20048;-95
2022/12/10 09:04:00;;;;;;;2.45;2.28;;;;;;;;;;5057357;28;20099;-94
2022/12/10 09:06:27;;;;;;;3.15;3.00;;;;;;;;;;5056846;28;20159;-95
2022/12/10 09:08:53;;;;;;;2.05;1.95;;;;;;;;;;5054386;28;20045;-92
2022/12/10 09:11:21;;;;;;;1.52;1.38;;;;;;;;;;5054363;28;20045;-94
2022/12/10 09:13:47;;;;;;;2.67;2.58;;;;;;;;;;5054040;28;20493;-93
2022/12/10 09:16:14;;;;;;;4.60;4.28;;;;;;;;;;5054266;28;20048;-93
2022/12/10 09:18:42;;;;;;;2.65;2.55;;;;;;;;;;5053900;28;20115;-94
2022/12/10 09:21:10;;;;;;;3.65;3.35;;;;;;;;;;5053770;28;20045;-93
2022/12/10 09:23:36;;;;;;;2.38;2.15;;;;;;;;;;5053846;28;20144;-93
2022/12/10 09:26:06;;;;;;;2.72;2.60;;;;;;;;;;5053955;28;20110;-94
2022/12/10 09:28:32;;;;;;;3.67;3.47;;;;;;;;;;5053980;28;20053;-93
2022/12/10 09:31:00;;;;;;;7.53;2.70;;;;;;;;;;5053794;28;20548;-93
2022/12/10 09:33:26;;;;;;;2.80;2.70;;;;;;;;;;5053946;28;20045;-94
2022/12/10 09:35:54;;;;;;;2.95;2.85;;;;;;;;;;5054125;28;20118;-94
2022/12/10 09:38:21;;;;;;;3.03;2.92;;;;;;;;;;5053754;28;20087;-94
2022/12/10 09:40:50;;;;;;;3.50;3.33;;;;;;;;;;5053718;28;20548;-93
2022/12/10 09:43:21;;;;;;;3.42;3.28;;;;;;;;;;5053963;28;20049;-94
2022/12/10 09:45:51;;;;;;;4.78;4.40;;;;;;;;;;5053440;28;20049;-93
2022/12/10 09:48:21;;;;;;;4.30;3.38;;;;;;;;;;5053330;28;20064;-93
2022/12/10 09:50:53;;;;;;;3.15;2.95;;;;;;;;;;5052835;28;20441;-93
2022/12/10 09:53:21;;;;;;;2.40;2.03;;;;;;;;;;5053705;28;20049;-92
2022/12/10 09:55:49;;;;;;;2.53;2.40;;;;;;;;;;5037923;28;20461;-93
2022/12/10 09:58:18;;;;;;;2.85;2.58;;;;;;;;;;5033644;28;20065;-93
2022/12/10 10:00:46;;;;;;;3.20;2.90;;;;;;;;;;5033397;28;20045;-93
2022/12/10 10:03:13;;;;;;;6.68;3.88;;;;;;;;;;5033385;28;20056;-94
2022/12/10 10:05:42;;;;;;;4.15;3.92;;;;;;;;;;5035655;28;20111;-94
2022/12/10 10:08:13;;;;;;;3.00;2.88;;;;;;;;;;5039057;28;20045;-94
2022/12/10 10:10:42;;;;;;;4.78;4.55;;;;;;;;;;5036914;28;20053;-93
2022/12/10 10:13:15;;;;;;;4.90;3.78;;;;;;;;;;5035173;28;20053;-93
2022/12/10 10:15:42;;;;;;;4.40;4.18;;;;;;;;;;5033103;28;20072;-94
2022/12/10 10:18:13;;;;;;;2.10;2.00;;;;;;;;;;5033500;28;20453;-94
2022/12/10 10:20:39;;;;;;;3.70;2.92;;;;;;;;;;5033355;28;20053;-93
2022/12/10 10:23:06;;;;;;;3.97;3.78;;;;;;;;;;5033096;28;20103;-94
2022/12/10 10:25:33;;;;;;;3.50;3.38;;;;;;;;;;5033456;28;20049;-93
2022/12/10 10:28:01;;;;;;;4.95;3.90;;;;;;;;;;5033181;28;20049;-93
2022/12/10 10:30:29;;;;;;;2.80;2.70;;;;;;;;;;5033250;28;20049;-94
2022/12/10 10:32:57;;;;;;;4.82;4.50;;;;;;;;;;5033349;28;20053;-94
2022/12/10 10:35:25;;;;;;;4.88;4.65;;;;;;;;;;5033191;28;20057;-94
2022/12/10 10:37:53;;;;;;;3.88;3.67;;;;;;;;;;5033290;28;20096;-93
2022/12/10 10:40:24;;;;;;;3.88;3.60;;;;;;;;;;5033092;28;20061;-94
2022/12/10 10:42:53;;;;;;;3.92;3.75;;;;;;;;;;5033080;28;20045;-93
2022/12/10 10:45:36;;;;;;;3.80;3.53;;;;;;;;;;5033189;28;20054;-93
2022/12/10 10:48:07;;;;;;;5.05;4.75;;;;;;;;;;5033153;28;20049;-93
2022/12/10 10:50:37;;;;;;;3.03;2.78;;;;;;;;;;5049752;28;20111;-90
2022/12/10 10:53:19;;;;;;;8.32;3.03;;;;;;;;;;5039096;28;20053;-90
2022/12/10 10:55:46;;;;;;;4.18;3.97;;;;;;;;;;5054500;28;20102;-93
2022/12/10 10:58:17;;;;;;;3.90;3.70;;;;;;;;;;5072758;28;20040;-92
2022/12/10 11:00:53;;;;;;;3.40;3.17;;;;;;;;;;5074041;28;20052;-92
2022/12/10 11:03:20;;;;;;;3.67;3.47;;;;;;;;;;5076392;28;20462;-91
2022/12/10 11:05:47;;;;;;;9.35;6.70;;;;;;;;;;5058688;28;20061;-91
2022/12/10 11:08:17;;;;;;;3.90;3.70;;;;;;;;;;5056410;28;20122;-90
2022/12/10 11:10:48;;;;;;;5.40;5.18;;;;;;;;;;5055406;28;20048;-89
2022/12/10 11:13:14;;;;;;;;;;;;;;;;;;5056119;28;20059;-91
2022/12/10 11:15:41;;;;;;;5.25;2.95;;;;;;;;;;5056070;28;20332;-93
2022/12/10 11:18:23;;;;;;;3.22;3.03;;;;;;;;;;5056153;28;20544;-93
2022/12/10 11:20:57;;;;;;;9.98;3.65;;;;;;;;;;5056467;28;20457;-92
2022/12/10 11:23:27;;;;;;;3.95;3.83;;;;;;;;;;5056165;28;20576;-93
2022/12/10 11:25:58;;;;;;;3.92;3.25;;;;;;;;;;5056286;28;20064;-90
2022/12/10 11:28:33;;;;;;;7.32;6.95;;;;;;;;;;5055360;28;20084;-90
2022/12/10 11:31:03;;;;;;;3.45;3.33;;;;;;;;;;5055541;28;20088;-90
2022/12/10 11:33:36;;;;;;;3.25;3.05;;;;;;;;;;5055311;28;20053;-90
2022/12/10 11:36:08;;;;;;;4.20;3.88;;;;;;;;;;5055848;28;20059;-89
2022/12/10 11:38:40;;;;;;;3.63;3.42;;;;;;;;;;5055622;28;20110;-90
2022/12/10 11:41:11;;;;;;;3.60;3.40;;;;;;;;;;5055434;28;20474;-89
2022/12/10 11:43:44;;;;;;;5.10;4.88;;;;;;;;;;5072137;28;20048;-89
2022/12/10 11:46:16;;;;;;;4.22;3.92;;;;;;;;;;5075246;28;20102;-90
2022/12/10 11:48:51;;;;;;;3.10;3.00;;;;;;;;;;5069164;28;20470;-90
2022/12/10 11:51:20;;;;;;;6.22;3.47;;;;;;;;;;5035210;28;20099;-90
2022/12/10 11:53:58;;;;;;;5.50;5.30;;;;;;;;;;5034891;28;20564;-89
2022/12/10 11:56:27;;;;;;;3.85;2.85;;;;;;;;;;5035568;28;20450;-91
2022/12/10 11:58:59;;;;;;;2.55;2.38;;;;;;;;;;5035475;28;20392;-89
2022/12/10 12:01:32;;;;;;;8.48;3.97;;;;;;;;;;5035464;28;20179;-94
2022/12/10 12:04:17;;;;;;;3.88;3.70;;;;;;;;;;5035385;28;20491;-89
2022/12/10 12:06:54;;;;;;;2.50;2.40;;;;;;;;;;5035715;28;20516;-92
2022/12/10 12:09:25;;;;;;;3.90;3.60;;;;;;;;;;5035253;28;20140;-90
2022/12/10 12:11:56;;;;;;;2.60;2.42;;;;;;;;;;5034677;28;20080;-92
2022/12/10 12:14:25;;;;;;;3.55;3.35;;;;;;;;;;5035139;28;20045;-91
2022/12/10 12:16:55;;;;;;;5.38;2.67;;;;;;;;;;5035362;28;20056;-89
2022/12/10 12:19:26;;;;;;;3.58;3.35;;;;;;;;;;5039043;28;20045;-89
2022/12/10 12:21:53;;;;;;;3.67;3.42;;;;;;;;;;5038246;28;20083;-89
2022/12/10 12:24:21;;;;;;;4.75;4.45;;;;;;;;;;5074847;28;20498;-90
2022/12/10 12:26:51;;;;;;;4.18;3.85;;;;;;;;;;5066899;28;20045;-91
2022/12/10 12:29:20;;;;;;;3.47;3.17;;;;;;;;;;5057286;28;20103;-90
2022/12/10 12:31:48;;;;;;;3.30;3.15;;;;;;;;;;5055354;28;20548;-90
2022/12/10 12:34:18;;;;;;;7.07;4.03;;;;;;;;;;5069526;28;20091;-90
2022/12/10 12:36:46;;;;;;;3.30;3.15;;;;;;;;;;5054774;28;20052;-89
2022/12/10 12:39:18;;;;;;;3.30;3.03;;;;;;;;;;5054738;28;20053;-90
2022/12/10 12:41:49;;;;;;;3.63;3.42;;;;;;;;;;5054129;28;20106;-92
2022/12/10 12:44:20;;;;;;;4.53;4.32;;;;;;;;;;5054264;28;20049;-92
2022/12/10 12:46:47;;;;;;;2.50;2.38;;;;;;;;;;5054378;28;20049;-91
2022/12/10 12:49:19;;;;;;;1.85;1.75;;;;;;;;;;5054634;28;20045;-92
2022/12/10 12:51:51;;;;;;;4.13;3.90;;;;;;;;;;5054290;28;20078;-91
2022/12/10 12:54:17;;;;;;;4.15;3.85;;;;;;;;;;5054316;28;20067;-91
2022/12/10 12:57:08;;;;;;;4.40;4.15;;;;;;;;;;5054335;28;20052;-90
2022/12/10 12:59:46;;;;;;;4.35;2.30;;;;;;;;;;5034087;28;20084;-92
2022/12/10 13:02:19;;;;;;;3.40;3.20;;;;;;;;;;5054341;28;20064;-93
2022/12/10 13:04:46;;;;;;;4.97;4.57;;;;;;;;;;5054429;28;20045;-90
2022/12/10 13:07:34;;;;;;;2.88;2.67;;;;;;;;;;5054139;28;20079;-93
2022/12/10 13:10:18;;;;;;;3.95;3.75;;;;;;;;;;5054575;28;20052;-94
2022/12/10 13:12:48;;;;;;;2.13;2.00;;;;;;;;;;5054080;28;20057;-91
2022/12/10 13:15:18;;;;;;;2.30;1.73;;;;;;;;;;5054133;28;20061;-92
2022/12/10 13:17:59;;;;;;;3.92;3.72;;;;;;;;;;5049732;28;20056;-90
2022/12/10 13:20:29;;;;;;;2.90;2.70;;;;;;;;;;5054247;28;20136;-90
2022/12/10 13:22:58;;;;;;;3.42;3.13;;;;;;;;;;5053972;28;20052;-92
2022/12/10 13:25:38;;;;;;;2.28;2.17;;;;;;;;;;5054088;28;20106;-92
2022/12/10 13:28:21;;;;;;;2.25;2.10;;;;;;;;;;5054065;28;20413;-89
2022/12/10 13:31:07;;;;;;;9.77;4.47;;;;;;;;;;5053595;28;20049;-90
2022/12/10 13:33:46;;;;;;;7.97;3.90;;;;;;;;;;5053183;28;20490;-89
2022/12/10 13:36:12;;;;;;;2.85;2.75;;;;;;;;;;5053511;28;20048;-89
2022/12/10 13:38:42;;;;;;;2.47;2.28;;;;;;;;;;5052962;28;20456;-90
2022/12/10 13:46:52;;;;;;;2.25;2.15;;;;;;;;;;5053273;28;20134;-90
2022/12/10 13:49:19;;;;;;;2.75;2.65;;;;;;;;;;5053602;28;20111;-93
2022/12/10 13:51:54;;;;;;;2.33;2.22;;;;;;;;;;5055719;28;20057;-92
2022/12/10 13:54:30;;;;;;;2.03;1.92;;;;;;;;;;5057780;28;20457;-92
2022/12/10 13:57:01;;;;;;;3.25;3.05;;;;;;;;;;5056819;28;20060;-92
2022/12/10 13:59:32;;;;;;;1.70;1.55;;;;;;;;;;5056955;28;20068;-90
2022/12/10 14:02:03;;;;;;;3.50;3.20;;;;;;;;;;5053494;28;20056;-90
2022/12/10 14:04:38;;;;;;;2.03;1.92;;;;;;;;;;5053322;28;20449;-92
2022/12/10 14:07:07;;;;;;;4.63;4.22;;;;;;;;;;5054462;28;20114;-92
2022/12/10 14:09:39;;;;;;;2.50;2.38;;;;;;;;;;5054734;28;20063;-89
2022/12/10 14:12:08;;;;;;;2.72;2.60;;;;;;;;;;5055203;28;20449;-91
2022/12/10 14:14:36;;;;;;;2.58;2.20;;;;;;;;;;5058246;28;20601;-90
2022/12/10 14:17:04;;;;;;;7.07;3.05;;;;;;;;;;5056865;28;20053;-90
2022/12/10 14:19:31;;;;;;;6.22;3.00;;;;;;;;;;5045763;28;20072;-89
2022/12/10 14:21:58;;;;;;;5.18;3.60;;;;;;;;;;5036970;28;20494;-89
2022/12/10 14:24:33;;;;;;;2.17;2.00;;;;;;;;;;5035966;28;20046;-89
2022/12/10 14:27:02;;;;;;;2.42;2.30;;;;;;;;;;5033108;28;20053;-90
2022/12/10 14:29:28;;;;;;;2.33;2.22;;;;;;;;;;5033957;28;20100;-90
2022/12/10 14:31:55;;;;;;;3.63;3.42;;;;;;;;;;5042199;28;20117;-90
2022/12/10 14:34:24;;;;;;;3.50;3.17;;;;;;;;;;5034322;28;20068;-89
2022/12/10 14:36:52;;;;;;;2.50;2.30;;;;;;;;;;5039027;28;20391;-89
2022/12/10 14:39:20;;;;;;;2.20;2.10;;;;;;;;;;5060557;28;20095;-90
2022/12/10 14:41:48;;;;;;;2.60;2.45;;;;;;;;;;5064535;28;20444;-91
2022/12/10 14:44:17;;;;;;;3.08;2.88;;;;;;;;;;5056658;28;20049;-89
2022/12/10 14:46:44;;;;;;;2.63;2.50;;;;;;;;;;5056529;28;20052;-90
2022/12/10 14:49:16;;;;;;;3.55;3.17;;;;;;;;;;5056220;28;20039;-89
2022/12/10 14:51:42;;;;;;;2.15;1.75;;;;;;;;;;5055829;28;20559;-91
2022/12/10 14:54:24;;;;;;;3.10;2.95;;;;;;;;;;5055959;28;20048;-90
2022/12/10 14:56:51;;;;;;;2.53;2.40;;;;;;;;;;5056264;28;20052;-90
2022/12/10 14:59:21;;;;;;;2.90;2.80;;;;;;;;;;5055538;28;20095;-91
2022/12/10 15:01:48;;;;;;;2.47;2.28;;;;;;;;;;5056564;28;20053;-92
2022/12/10 15:04:16;;;;;;;5.18;4.97;;;;;;;;;;5056245;28;20619;-92
2022/12/10 15:06:43;;;;;;;4.40;2.30;;;;;;;;;;5055993;28;20052;-92